Time;durP1;ratioP1;P1;durP2;ratioP2;P2;SDS_P1;SDS_P2;PMS_P1;PMS_P2;Temp;Humidity;BMP_temperature;BMP_pressure;BME280_temperature;BME280_humidity;BME280_pressure;Samples;Min_cycle;Max_cycle;Signal;HPM_P1;HPM_P2
2022/11/17 00:00:19;;;;;;;12.50;6.43;;;;;;;8.32;100.00;98772.03;5000027;28;20050;-85
2022/11/17 00:02:50;;;;;;;10.65;6.05;;;;;;;8.27;100.00;98747.19;5007601;28;20443;-86
2022/11/17 00:05:19;;;;;;;14.35;6.88;;;;;;;8.38;100.00;98752.78;5000843;28;20105;-86
2022/11/17 00:07:50;;;;;;;12.10;6.22;;;;;;;8.41;100.00;98753.47;5010639;28;20037;-85
2022/11/17 00:10:34;;;;;;;11.43;6.18;;;;;;;8.31;100.00;98731.41;5004554;28;20466;-84
2022/11/17 00:16:14;;;;;;;13.15;6.57;;;;;;;8.29;100.00;98719.41;4995818;28;20169;-85
2022/11/17 00:21:45;;;;;;;15.50;6.45;;;;;;;8.24;100.00;98700.63;5000012;28;20104;-84
2022/11/17 00:24:15;;;;;;;12.95;6.80;;;;;;;8.57;100.00;98750.13;5006887;28;20049;-85
2022/11/17 00:29:42;;;;;;;13.93;6.72;;;;;;;8.59;100.00;98720.56;5001454;28;20049;-86
2022/11/17 00:35:11;;;;;;;15.70;6.93;;;;;;;8.41;100.00;98687.72;5010295;28;20076;-86
2022/11/17 00:40:44;;;;;;;12.77;6.60;;;;;;;8.27;100.00;98643.38;4964825;28;20078;-86
2022/11/17 00:43:14;;;;;;;15.35;6.55;;;;;;;8.41;100.00;98678.16;4967456;28;20027;-86
2022/11/17 00:45:47;;;;;;;14.32;6.43;;;;;;;8.57;100.00;98686.03;4971291;28;20027;-86
2022/11/17 00:48:15;;;;;;;10.68;6.10;;;;;;;8.35;100.00;98649.03;4956338;28;20027;-86
2022/11/17 00:50:47;;;;;;;9.93;6.47;;;;;;;8.62;100.00;98681.44;4967676;28;20037;-85
2022/11/17 00:53:18;;;;;;;11.88;6.05;;;;;;;8.46;100.00;98648.53;4973214;28;20059;-86
2022/11/17 00:55:47;;;;;;;10.90;6.60;;;;;;;8.46;100.00;98645.94;4965379;28;20102;-85
2022/11/17 00:58:12;;;;;;;10.43;5.72;;;;;;;8.44;100.00;98653.81;4967296;28;20103;-85
2022/11/17 01:00:37;;;;;;;12.40;6.22;;;;;;;8.49;100.00;98646.63;4962166;28;20094;-85
2022/11/17 01:03:05;;;;;;;11.95;5.90;;;;;;;8.67;100.00;98661.28;4960255;28;20402;-85
2022/11/17 01:05:33;;;;;;;12.30;5.80;;;;;;;8.47;100.00;98619.91;4974400;28;20030;-85
2022/11/17 01:08:07;;;;;;;10.00;6.15;;;;;;;8.54;100.00;98623.03;4969144;28;20089;-85
2022/11/17 01:10:42;;;;;;;13.40;5.85;;;;;;;8.70;100.00;98638.66;4968676;28;20033;-85
2022/11/17 01:13:16;;;;;;;8.63;5.65;;;;;;;8.73;100.00;98635.91;4972898;28;20530;-84
2022/11/17 01:15:41;;;;;;;9.52;5.43;;;;;;;8.67;100.00;98627.53;4967765;28;20031;-84
2022/11/17 01:18:21;;;;;;;8.20;4.72;;;;;;;8.67;100.00;98632.72;4961394;28;20502;-84
2022/11/17 01:20:46;;;;;;;7.03;4.57;;;;;;;8.54;100.00;98605.69;4969973;28;20467;-83
2022/11/17 01:23:20;;;;;;;9.43;3.92;;;;;;;8.47;100.00;98593.06;4975659;28;20029;-83
2022/11/17 01:26:12;;;;;;;10.48;4.38;;;;;;;8.76;100.00;98627.94;4997015;23;20052;-83
2022/11/17 01:28:38;;;;;;;6.20;3.85;;;;;;;8.75;100.00;98613.28;5032349;28;20045;-84
2022/11/17 01:31:07;;;;;;;9.02;4.38;;;;;;;8.55;100.00;98591.78;5032704;28;20104;-83
2022/11/17 01:33:53;;;;;;;8.98;4.55;;;;;;;8.49;100.00;98579.09;5033726;28;20111;-83
2022/11/17 01:36:22;;;;;;;5.93;3.80;;;;;;;8.48;100.00;98572.25;5008809;28;20041;-83
2022/11/17 01:38:52;;;;;;;8.82;4.20;;;;;;;8.82;100.00;98619.84;5055633;23;20136;-84
2022/11/17 01:41:43;;;;;;;10.15;4.35;;;;;;;8.62;100.00;98554.19;5024774;28;20025;-83
2022/11/17 01:44:49;;;;;;;5.72;3.83;;;;;;;8.83;100.00;98582.56;5051844;28;20044;-83
2022/11/17 01:47:42;;;;;;;6.93;4.15;;;;;;;8.84;100.00;98615.41;5045986;28;20037;-83
2022/11/17 01:50:36;;;;;;;7.72;4.55;;;;;;;8.83;100.00;98611.16;5051150;28;20057;-83
2022/11/17 01:53:42;;;;;;;5.25;4.57;;;;;;;8.60;100.00;98578.53;5051385;28;20112;-83
2022/11/17 01:56:41;;;;;;;9.52;4.32;;;;;;;8.62;100.00;98577.56;5049072;28;20060;-83
2022/11/17 01:59:41;;;;;;;8.70;4.15;;;;;;;8.67;100.00;98588.56;5045424;28;20021;-83
2022/11/17 02:02:27;;;;;;;8.50;4.63;;;;;;;8.63;100.00;98580.97;5048236;28;20069;-83
2022/11/17 02:05:27;;;;;;;7.93;4.45;;;;;;;8.78;100.00;98590.59;5052869;23;20052;-83
2022/11/17 02:08:04;;;;;;;7.22;4.50;;;;;;;8.82;100.00;98579.09;5042165;28;20366;-83
2022/11/17 02:10:30;;;;;;;9.95;4.47;;;;;;;8.63;100.00;98562.81;5049941;28;20056;-82
2022/11/17 02:12:56;;;;;;;9.05;4.60;;;;;;;8.63;100.00;98557.59;5051682;28;20256;-83
2022/11/17 02:15:22;;;;;;;9.15;4.70;;;;;;;8.65;100.00;98569.59;5048228;28;20056;-83
2022/11/17 02:17:49;;;;;;;7.60;4.20;;;;;;;8.82;100.00;98583.47;5048558;28;20497;-83
2022/11/17 02:20:52;;;;;;;5.65;3.55;;;;;;;8.86;100.00;98569.41;5052251;28;20472;-84
2022/11/17 02:24:12;;;;;;;7.15;3.45;;;;;;;8.87;100.00;98565.91;5039315;28;20033;-83
2022/11/17 02:27:14;;;;;;;7.00;3.55;;;;;;;8.89;100.00;98551.03;4959818;28;20097;-83
2022/11/17 02:30:12;;;;;;;4.95;2.45;;;;;;;8.93;100.00;98554.31;4971880;28;20101;-83
2022/11/17 02:33:02;;;;;;;3.78;1.85;;;;;;;8.92;100.00;98558.69;4969340;28;20036;-83
2022/11/17 02:36:03;;;;;;;2.67;1.70;;;;;;;8.84;100.00;98547.88;5037497;23;20054;-82
2022/11/17 02:38:55;;;;;;;3.97;2.10;;;;;;;8.64;100.00;98510.78;5035186;28;20052;-83
2022/11/17 02:41:58;;;;;;;3.42;1.83;;;;;;;8.77;100.00;98528.34;5029366;28;20079;-83
2022/11/17 02:45:02;;;;;;;4.13;1.73;;;;;;;8.58;100.00;98495.53;5044927;28;20051;-83
2022/11/17 02:48:10;;;;;;;3.00;1.77;;;;;;;8.75;100.00;98522.38;5041055;28;20033;-83
2022/11/17 02:51:07;;;;;;;3.85;1.80;;;;;;;8.71;100.00;98503.50;5038239;28;20025;-82
2022/11/17 02:53:39;;;;;;;3.38;1.80;;;;;;;8.43;100.00;98463.41;5051764;28;20037;-83
2022/11/17 02:58:38;;;;;;;4.13;1.90;;;;;;;8.66;100.00;98498.56;5047485;23;20052;-82
2022/11/17 03:01:49;;;;;;;4.60;1.77;;;;;;;8.68;100.00;98506.28;4992339;28;20045;-82
2022/11/17 03:04:49;;;;;;;4.15;1.52;;;;;;;8.66;100.00;98500.31;5010564;28;20037;-83
2022/11/17 03:07:35;;;;;;;7.53;1.80;;;;;;;8.61;100.00;98497.97;5026215;28;20052;-82
2022/11/17 03:10:27;;;;;;;3.13;1.58;;;;;;;8.38;100.00;98457.63;5014926;28;20392;-83
2022/11/17 03:13:00;;;;;;;3.50;1.70;;;;;;;8.51;100.00;98481.19;5040576;28;20036;-82
2022/11/17 03:15:55;;;;;;;;;;;;;;;8.50;100.00;98486.44;5038818;28;20048;-82
2022/11/17 03:18:48;;;;;;;5.07;1.13;;;;;;;8.44;100.00;98485.03;5019529;28;19913;-82
2022/11/17 03:21:46;;;;;;;4.35;1.20;;;;;;;8.44;100.00;98482.44;5040932;28;20048;-83
2022/11/17 03:24:41;;;;;;;1.90;0.88;;;;;;;8.41;100.00;98475.63;5047420;28;20033;-82
2022/11/17 03:27:24;;;;;;;;;;;;;;;8.35;100.00;98467.31;5031660;28;20038;-83
2022/11/17 03:29:54;;;;;;;2.70;1.00;;;;;;;8.16;100.00;98431.06;5030227;28;19984;-83
2022/11/17 03:32:30;;;;;;;1.73;0.80;;;;;;;8.25;100.00;98453.97;5033102;28;20052;-83
2022/11/17 03:34:58;;;;;;;2.45;0.90;;;;;;;7.97;100.00;98407.81;5020404;28;20068;-82
2022/11/17 03:37:40;;;;;;;2.42;1.13;;;;;;;7.96;100.00;98404.41;5040427;28;20103;-82
2022/11/17 03:40:13;;;;;;;1.77;1.00;;;;;;;8.17;100.00;98430.16;5040425;28;20496;-82
2022/11/17 03:42:55;;;;;;;2.70;0.90;;;;;;;8.11;100.00;98423.53;5031240;28;20033;-82
2022/11/17 03:45:34;;;;;;;2.10;0.80;;;;;;;8.11;100.00;98415.75;5012661;28;20037;-82
2022/11/17 03:48:17;;;;;;;3.25;0.90;;;;;;;8.08;100.00;98396.91;5036470;28;20033;-83
2022/11/17 03:51:05;;;;;;;5.78;1.13;;;;;;;8.38;100.00;98428.22;5039517;28;20118;-82
2022/11/17 03:53:31;;;;;;;4.40;1.15;;;;;;;8.35;100.00;98408.44;5038225;28;20460;-82
2022/11/17 03:56:15;;;;;;;4.05;1.10;;;;;;;8.58;100.00;98425.41;5030151;28;20075;-82
2022/11/17 03:59:01;;;;;;;4.00;1.10;;;;;;;8.57;100.00;98428.09;5040930;28;20401;-82
2022/11/17 04:01:29;;;;;;;3.33;1.30;;;;;;;8.45;100.00;98398.41;5040169;28;20106;-82
2022/11/17 04:04:13;;;;;;;3.38;1.20;;;;;;;8.71;100.00;98428.19;5019914;28;20053;-82
2022/11/17 04:06:39;;;;;;;2.90;1.30;;;;;;;8.71;100.00;98398.78;5033870;28;20496;-82
2022/11/17 04:09:04;;;;;;;3.78;1.25;;;;;;;8.52;100.00;98372.97;5039140;28;20037;-82
2022/11/17 04:17:03;;;;;;;3.78;1.10;;;;;;;8.64;100.00;98393.06;5040151;28;20439;-81
2022/11/17 04:19:28;;;;;;;3.42;1.27;;;;;;;8.78;100.00;98423.50;5032163;28;20021;-82
2022/11/17 04:22:09;;;;;;;3.03;1.25;;;;;;;8.71;100.00;98403.97;5042033;28;20079;-82
2022/11/17 04:24:34;;;;;;;3.50;1.40;;;;;;;8.64;100.00;98378.31;5028476;28;20033;-82
2022/11/17 04:29:46;;;;;;;;;;;;;;;8.88;100.00;98433.28;5033056;28;20121;-87
2022/11/17 04:32:11;;;;;;;5.70;1.52;;;;;;;8.67;100.00;98406.72;5036523;28;19978;-87
2022/11/17 04:34:39;;;;;;;9.38;1.85;;;;;;;8.70;100.00;98400.53;5030864;28;20087;-87
2022/11/17 04:37:16;;;;;;;5.10;1.50;;;;;;;8.72;100.00;98390.88;5042834;28;20120;-87
2022/11/17 04:39:41;;;;;;;5.63;1.90;;;;;;;8.53;100.00;98344.28;5009138;28;20044;-87
2022/11/17 04:42:18;;;;;;;4.70;1.52;;;;;;;8.66;100.00;98355.72;5035659;28;20037;-87
2022/11/17 04:47:28;;;;;;;;;;;;;;;8.86;100.00;98393.59;5034622;28;20405;-87
2022/11/17 04:50:08;;;;;;;9.20;2.10;;;;;;;8.50;100.00;98318.53;5028865;28;19913;-86
2022/11/17 04:52:39;;;;;;;8.60;2.17;;;;;;;8.57;100.00;98329.41;5028043;28;20327;-86
2022/11/17 04:55:23;;;;;;;3.20;1.92;;;;;;;8.55;100.00;98321.69;5020457;28;20634;-86
2022/11/17 04:58:13;;;;;;;4.97;1.70;;;;;;;8.86;100.00;98374.53;5029224;28;20052;-87
2022/11/17 05:01:11;;;;;;;13.63;2.30;;;;;;;8.73;100.00;98350.16;5012930;28;20037;-87
2022/11/17 05:03:52;;;;;;;11.82;1.80;;;;;;;8.53;100.00;98327.88;5033847;28;20112;-87
2022/11/17 05:06:23;;;;;;;12.68;2.17;;;;;;;8.66;100.00;98355.72;5026206;28;20108;-86
2022/11/17 05:09:00;;;;;;;11.43;2.05;;;;;;;8.69;100.00;98354.69;5031017;28;20480;-87
2022/11/17 05:14:22;;;;;;;11.85;1.90;;;;;;;8.79;100.00;98363.63;5030094;28;20040;-88
2022/11/17 05:19:55;;;;;;;9.07;2.15;;;;;;;8.80;100.00;98348.91;5042528;28;20039;-87
2022/11/17 05:25:09;;;;;;;10.60;2.35;;;;;;;8.91;100.00;98407.13;5057863;23;20096;-87
2022/11/17 05:27:40;;;;;;;4.65;2.25;;;;;;;8.74;100.00;98380.44;5050064;28;20052;-88
2022/11/17 05:30:27;;;;;;;6.53;2.30;;;;;;;8.99;100.00;98419.72;5050515;28;20423;-87
2022/11/17 05:33:07;;;;;;;14.48;2.90;;;;;;;8.93;100.00;98417.47;5026538;28;20073;-87
2022/11/17 05:35:43;;;;;;;9.95;2.88;;;;;;;8.84;100.00;98403.22;5034590;28;20885;-87
2022/11/17 05:38:27;;;;;;;15.23;3.00;;;;;;;8.78;100.00;98395.75;5035483;28;20090;-87
2022/11/17 05:40:55;;;;;;;11.23;2.88;;;;;;;8.80;100.00;98403.47;5044381;28;20033;-86
2022/11/17 05:43:30;;;;;;;9.80;2.40;;;;;;;8.75;100.00;98400.28;5036360;28;20033;-86
2022/11/17 05:45:55;;;;;;;10.35;2.60;;;;;;;8.65;100.00;98385.19;5053976;28;20171;-86
2022/11/17 05:48:21;;;;;;;13.63;2.80;;;;;;;8.71;100.00;98398.78;5049998;28;20093;-86
2022/11/17 05:51:43;;;;;;;13.65;2.47;;;;;;;8.94;100.00;98436.47;5048886;28;20029;-86
2022/11/17 05:55:11;;;;;;;17.63;3.10;;;;;;;8.95;100.00;98438.16;5051198;28;20040;-86
2022/11/17 05:58:35;;;;;;;14.65;3.20;;;;;;;8.95;100.00;98444.19;5042441;28;20047;-86
2022/11/17 06:02:06;;;;;;;15.38;2.55;;;;;;;8.94;100.00;98441.69;5039923;28;20033;-85
2022/11/17 06:04:50;;;;;;;12.93;3.20;;;;;;;8.60;100.00;98392.41;5050990;28;20039;-85
2022/11/17 06:07:34;;;;;;;16.58;2.78;;;;;;;8.91;100.00;98437.47;5043452;28;20125;-85
2022/11/17 06:10:00;;;;;;;15.80;3.40;;;;;;;8.86;100.00;98440.34;5034290;28;20056;-85
2022/11/17 06:12:40;;;;;;;13.63;2.83;;;;;;;8.96;100.00;98458.00;5051674;28;20055;-85
2022/11/17 06:19:09;;;;;;;13.73;2.40;;;;;;;8.94;100.00;98465.91;4952987;28;20454;-86
2022/11/17 06:21:49;;;;;;;15.18;2.38;;;;;;;8.64;100.00;98412.09;4948404;28;20043;-85
2022/11/17 06:24:14;;;;;;;11.63;2.17;;;;;;;8.59;100.00;98419.28;4963293;28;20053;-85
2022/11/17 06:26:55;;;;;;;15.05;2.33;;;;;;;8.58;100.00;98430.59;4965480;28;20031;-84
2022/11/17 06:29:35;;;;;;;13.27;2.33;;;;;;;8.83;100.00;98487.28;4974141;28;20063;-84
2022/11/17 06:35:12;;;;;;;8.90;1.90;;;;;;;8.60;100.00;98462.53;4964997;28;20541;-85
2022/11/17 06:37:52;;;;;;;15.80;2.17;;;;;;;8.69;100.00;98487.16;5046798;28;20045;-85
2022/11/17 06:40:36;;;;;;;12.98;2.20;;;;;;;8.64;100.00;98487.41;5042509;28;20029;-85
2022/11/17 06:43:26;;;;;;;16.20;1.85;;;;;;;8.61;100.00;98487.56;5051479;28;20025;-85
2022/11/17 06:46:24;;;;;;;6.38;1.42;;;;;;;8.51;100.00;98480.34;5052837;28;20025;-86
2022/11/17 06:49:06;;;;;;;9.27;1.40;;;;;;;8.21;100.00;98437.72;5034561;28;20112;-86
2022/11/17 06:51:34;;;;;;;9.65;1.55;;;;;;;8.29;100.00;98454.63;5052103;28;20037;-86
2022/11/17 06:54:24;;;;;;;7.85;1.70;;;;;;;8.54;100.00;98501.81;5050356;28;20372;-86
2022/11/17 06:57:08;;;;;;;10.85;1.52;;;;;;;8.50;100.00;98510.69;5050323;28;20056;-87
2022/11/17 06:59:50;;;;;;;10.45;1.67;;;;;;;8.22;100.00;98459.31;5044801;28;20104;-86
2022/11/17 07:05:23;;;;;;;8.43;1.80;;;;;;;8.37;100.00;98488.81;5051283;28;20098;-86
2022/11/17 07:11:51;;;;;;;6.15;1.88;;;;;;;8.43;100.00;98510.13;5003384;28;20501;-86
2022/11/17 07:14:42;;;;;;;4.25;1.70;;;;;;;8.42;100.00;98523.22;4953923;28;20038;-85
2022/11/17 07:17:16;;;;;;;8.25;1.75;;;;;;;8.21;100.00;98500.00;4987545;28;20068;-86
2022/11/17 07:19:53;;;;;;;10.50;1.73;;;;;;;8.06;100.00;98469.63;4991055;28;20092;-85
2022/11/17 07:22:22;;;;;;;8.73;1.80;;;;;;;8.10;100.00;98484.13;4993548;28;20091;-86
2022/11/17 07:24:48;;;;;;;7.10;1.25;;;;;;;8.21;100.00;98509.56;4987026;28;20054;-86
2022/11/17 07:27:19;;;;;;;8.50;1.60;;;;;;;8.11;100.00;98488.41;4995507;28;20054;-86
2022/11/17 07:36:50;;;;;;;7.38;1.58;;;;;;;8.32;100.00;98547.94;4987976;28;20491;-86
2022/11/17 07:39:46;;;;;;;11.25;2.13;;;;;;;7.97;100.00;98483.91;4935963;29;20051;-86
2022/11/17 07:45:13;;;;;;;7.25;1.65;;;;;;;7.98;100.00;98497.75;4836027;29;20048;-86
2022/11/17 07:48:19;;;;;;;8.13;1.90;;;;;;;8.33;100.00;98555.63;4839727;29;20391;-85
2022/11/17 07:51:02;;;;;;;6.90;1.50;;;;;;;8.15;100.00;98521.06;4822530;29;20138;-85
2022/11/17 07:53:34;;;;;;;8.60;1.80;;;;;;;8.21;100.00;98538.09;4840945;29;20068;-85
2022/11/17 07:56:08;;;;;;;7.25;1.63;;;;;;;8.34;100.00;98564.28;4879221;29;20053;-84
2022/11/17 07:58:33;;;;;;;6.68;1.48;;;;;;;8.32;100.00;98548.78;4879642;29;20437;-84
2022/11/17 08:01:17;;;;;;;4.15;1.20;;;;;;;8.26;100.00;98554.28;4883145;29;20362;-84
2022/11/17 08:03:58;;;;;;;4.85;1.45;;;;;;;8.12;100.00;98541.16;4878925;29;20043;-85
2022/11/17 08:06:47;;;;;;;7.70;1.33;;;;;;;8.21;100.00;98551.09;4887252;29;20503;-85
2022/11/17 08:09:21;;;;;;;10.90;1.60;;;;;;;8.05;100.00;98524.22;4876315;29;20426;-85
2022/11/17 08:11:47;;;;;;;5.53;1.80;;;;;;;8.15;100.00;98552.22;4890678;28;20031;-84
2022/11/17 08:17:09;;;;;;;6.88;1.65;;;;;;;8.16;100.00;98553.06;5055977;23;20816;-84
2022/11/17 08:19:56;;;;;;;8.55;1.40;;;;;;;8.34;100.00;98595.44;5040126;28;20033;-84
2022/11/17 08:22:37;;;;;;;5.00;1.40;;;;;;;8.11;100.00;98565.41;5046929;28;20496;-84
2022/11/17 08:25:12;;;;;;;5.43;1.80;;;;;;;8.15;100.00;98585.97;5038282;28;20496;-85
2022/11/17 08:27:53;;;;;;;5.47;1.48;;;;;;;8.09;100.00;98581.06;5049410;28;20024;-85
2022/11/17 08:30:25;;;;;;;7.60;1.33;;;;;;;8.28;100.00;98611.31;5049800;28;20025;-85
2022/11/17 08:32:56;;;;;;;6.05;1.48;;;;;;;8.21;100.00;98601.22;5039229;28;20036;-85
2022/11/17 08:35:24;;;;;;;6.93;1.80;;;;;;;8.26;100.00;98613.13;5052190;28;20032;-84
2022/11/17 08:37:50;;;;;;;7.38;1.30;;;;;;;8.08;100.00;98596.72;5043527;28;20025;-85
2022/11/17 08:40:28;;;;;;;5.57;1.42;;;;;;;8.06;100.00;98588.16;5041150;28;20056;-84
2022/11/17 08:43:12;;;;;;;6.72;1.55;;;;;;;7.91;100.00;98569.84;5032950;28;20556;-85
2022/11/17 08:45:51;;;;;;;8.07;1.55;;;;;;;7.88;100.00;98579.50;5047721;28;20115;-84
2022/11/17 08:48:28;;;;;;;5.70;1.67;;;;;;;7.88;100.00;98579.50;5042762;28;20024;-84
2022/11/17 08:54:11;;;;;;;8.10;1.58;;;;;;;8.19;100.00;98626.41;5037921;28;20154;-82
2022/11/17 08:56:39;;;;;;;7.43;1.80;;;;;;;8.09;100.00;98603.59;5049448;28;20017;-82
2022/11/17 08:59:05;;;;;;;5.65;1.60;;;;;;;8.21;100.00;98629.78;5046271;28;20025;-83
2022/11/17 09:01:30;;;;;;;11.65;2.22;;;;;;;8.19;100.00;98635.97;5053614;28;20021;-82
2022/11/17 09:03:58;;;;;;;7.93;1.60;;;;;;;8.16;100.00;98621.38;5041165;28;20029;-82
2022/11/17 09:06:44;;;;;;;5.13;1.48;;;;;;;8.21;100.00;98636.75;5054919;28;20031;-82
2022/11/17 09:09:29;;;;;;;5.95;1.55;;;;;;;8.21;100.00;98634.13;5057074;23;20046;-83
2022/11/17 09:12:01;;;;;;;4.68;1.60;;;;;;;8.27;100.00;98651.16;5029972;28;20045;-83
2022/11/17 09:14:47;;;;;;;8.95;2.42;;;;;;;8.01;100.00;98597.91;5026857;28;20044;-82
2022/11/17 09:20:05;;;;;;;6.15;1.88;;;;;;;8.25;100.00;98647.81;5034867;28;20381;-83
2022/11/17 09:22:34;;;;;;;4.75;1.20;;;;;;;8.04;100.00;98616.78;5031944;28;20101;-83
2022/11/17 09:25:15;;;;;;;6.25;1.52;;;;;;;7.93;100.00;98590.50;5031268;28;20091;-83
2022/11/17 09:27:48;;;;;;;9.65;2.03;;;;;;;8.15;100.00;98631.84;5035072;28;20017;-82
2022/11/17 09:30:26;;;;;;;5.32;1.40;;;;;;;8.17;100.00;98628.25;5034813;28;20037;-82
2022/11/17 09:32:58;;;;;;;6.13;1.90;;;;;;;8.09;100.00;98619.16;5021018;28;20033;-82
2022/11/17 09:35:35;;;;;;;6.20;1.48;;;;;;;8.24;100.00;98622.75;5031181;28;20124;-83
2022/11/17 09:38:06;;;;;;;7.95;2.50;;;;;;;8.19;100.00;98620.38;5021592;28;20104;-83
2022/11/17 09:40:47;;;;;;;5.07;1.92;;;;;;;8.37;100.00;98645.44;5031440;28;20029;-82
2022/11/17 09:43:59;;;;;;;7.00;2.00;;;;;;;8.75;100.00;98680.84;5030333;28;20029;-82
2022/11/17 09:47:08;;;;;;;8.38;1.77;;;;;;;8.84;100.00;98680.38;5032166;28;20026;-82
2022/11/17 09:50:01;;;;;;;3.95;1.63;;;;;;;8.82;100.00;98677.00;5022305;28;20094;-82
2022/11/17 09:52:50;;;;;;;5.38;1.58;;;;;;;8.78;100.00;98670.28;5024911;28;20060;-81
2022/11/17 09:55:21;;;;;;;7.70;1.75;;;;;;;8.84;100.00;98682.97;5033486;28;20045;-82
2022/11/17 09:58:30;;;;;;;3.88;1.30;;;;;;;8.55;100.00;98653.28;5031712;28;20040;-82
2022/11/17 10:00:56;;;;;;;3.85;1.20;;;;;;;8.65;100.00;98683.88;5017571;28;20045;-82
2022/11/17 10:03:34;;;;;;;6.32;1.58;;;;;;;8.60;100.00;98664.25;5033080;28;20029;-82
2022/11/17 10:06:17;;;;;;;8.05;1.67;;;;;;;8.87;100.00;98706.22;5033792;28;20132;-82
2022/11/17 10:09:20;;;;;;;4.22;1.27;;;;;;;8.91;100.00;98699.94;5031490;28;20045;-82
2022/11/17 10:12:14;;;;;;;4.78;1.40;;;;;;;8.63;100.00;98651.97;5033297;28;20041;-83
2022/11/17 10:14:41;;;;;;;6.63;1.70;;;;;;;8.81;100.00;98683.97;5026368;28;20362;-82
2022/11/17 10:17:08;;;;;;;7.85;1.33;;;;;;;8.94;100.00;98684.19;5030455;28;20515;-82
2022/11/17 10:19:39;;;;;;;5.28;1.58;;;;;;;9.14;100.00;98709.16;5034188;28;20037;-81
2022/11/17 10:22:25;;;;;;;5.35;1.50;;;;;;;9.07;100.00;98710.38;5034306;28;20018;-81
2022/11/17 10:24:59;;;;;;;4.25;1.08;;;;;;;8.91;100.00;98682.56;5033651;28;20088;-82
2022/11/17 10:27:52;;;;;;;3.15;1.30;;;;;;;9.09;100.00;98688.59;5033637;28;20025;-82
2022/11/17 10:30:22;;;;;;;2.67;1.17;;;;;;;9.11;100.00;98691.94;5033398;28;20028;-88
2022/11/17 10:33:14;;;;;;;10.45;1.80;;;;;;;9.31;100.00;98719.50;5031736;28;20632;-82
2022/11/17 10:35:55;;;;;;;3.53;1.10;;;;;;;9.27;100.00;98709.34;4996573;28;20025;-83
2022/11/17 10:39:27;;;;;;;6.38;1.15;;;;;;;9.12;100.00;98696.25;5032373;28;20017;-83
2022/11/17 10:41:53;;;;;;;7.40;1.30;;;;;;;9.24;100.00;98740.72;4920103;29;20173;-83
2022/11/17 10:44:26;;;;;;;5.05;1.10;;;;;;;9.24;100.00;98728.56;4932209;29;20028;-85
2022/11/17 10:46:57;;;;;;;5.10;1.30;;;;;;;9.29;100.00;98749.13;5004294;28;20034;-84
2022/11/17 10:49:25;;;;;;;6.20;1.13;;;;;;;9.28;100.00;98750.88;5027506;28;20028;-85
2022/11/17 10:52:03;;;;;;;4.97;1.20;;;;;;;9.28;100.00;98750.88;5031270;28;20018;-80
2022/11/17 10:54:29;;;;;;;1.65;1.00;;;;;;;9.26;100.00;98749.28;5029449;28;20030;-80
2022/11/17 10:56:58;;;;;;;4.28;1.48;;;;;;;9.14;100.00;98740.34;5031796;28;20113;-82
2022/11/17 10:59:29;;;;;;;3.85;1.55;;;;;;;9.08;100.00;98719.88;5031913;28;20120;-82
2022/11/17 11:01:54;;;;;;;4.45;1.20;;;;;;;9.20;100.00;98745.25;5032060;28;20541;-82
2022/11/17 11:04:30;;;;;;;4.18;1.45;;;;;;;9.08;100.00;98741.50;5032489;28;20128;-82
2022/11/17 11:07:26;;;;;;;1.65;1.02;;;;;;;9.07;100.00;98745.03;5026202;28;20034;-81
2022/11/17 11:09:54;;;;;;;3.60;1.40;;;;;;;9.23;100.00;98762.44;5029712;28;20082;-81
2022/11/17 11:12:39;;;;;;;6.75;1.70;;;;;;;9.10;100.00;98739.66;5032312;28;20026;-82
2022/11/17 11:15:25;;;;;;;6.47;1.70;;;;;;;9.09;100.00;98737.13;5032869;28;20022;-82
2022/11/17 11:17:51;;;;;;;7.38;1.50;;;;;;;9.09;100.00;98744.94;5024253;28;20497;-81
2022/11/17 11:20:44;;;;;;;3.92;1.52;;;;;;;9.27;100.00;98774.38;5032101;28;20033;-82
2022/11/17 11:23:19;;;;;;;4.90;1.37;;;;;;;9.16;100.00;98758.47;5031686;28;20128;-81
2022/11/17 11:25:56;;;;;;;5.03;1.52;;;;;;;9.13;100.00;98762.06;5032917;28;20022;-81
2022/11/17 11:28:56;;;;;;;4.63;1.30;;;;;;;9.22;100.00;98773.75;5032129;28;20037;-81
2022/11/17 11:32:09;;;;;;;4.28;1.40;;;;;;;9.04;100.00;98758.16;4996041;28;20070;-82
2022/11/17 11:35:02;;;;;;;5.20;1.67;;;;;;;9.08;100.00;98788.28;5023421;28;20558;-82
2022/11/17 11:37:51;;;;;;;5.30;1.60;;;;;;;8.87;100.00;98759.00;5032445;28;20366;-82
2022/11/17 11:40:30;;;;;;;3.90;1.95;;;;;;;8.79;100.00;98750.75;5029621;28;20033;-82
2022/11/17 11:42:58;;;;;;;6.70;1.42;;;;;;;9.02;100.00;98793.78;5030993;28;20083;-82
2022/11/17 11:46:08;;;;;;;4.50;1.45;;;;;;;8.96;100.00;98790.66;5016873;28;20037;-82
2022/11/17 11:48:35;;;;;;;2.90;1.40;;;;;;;8.87;100.00;98785.00;5021023;28;20033;-82
2022/11/17 11:51:17;;;;;;;2.97;1.50;;;;;;;8.90;100.00;98786.63;5026735;28;20021;-81
2022/11/17 11:53:42;;;;;;;4.63;1.70;;;;;;;8.96;100.00;98804.50;5019100;28;20480;-81
2022/11/17 11:56:32;;;;;;;6.80;1.52;;;;;;;9.00;100.00;98797.41;5031809;28;20116;-80
2022/11/17 11:59:35;;;;;;;5.15;2.17;;;;;;;9.08;100.00;98806.47;5023218;28;20029;-80
2022/11/17 12:02:13;;;;;;;6.07;1.50;;;;;;;9.02;100.00;98788.59;5022010;28;20030;-81
2022/11/17 12:05:17;;;;;;;6.05;1.40;;;;;;;8.98;100.00;98799.22;5030428;28;20034;-81
2022/11/17 12:08:07;;;;;;;4.68;1.55;;;;;;;8.93;100.00;98807.25;5023023;28;20029;-81
2022/11/17 12:10:49;;;;;;;4.45;1.20;;;;;;;8.94;100.00;98811.53;5016251;28;20076;-81
2022/11/17 12:13:19;;;;;;;4.15;1.10;;;;;;;8.99;100.00;98809.56;5032141;28;20477;-81
2022/11/17 12:15:59;;;;;;;4.95;1.33;;;;;;;8.85;100.00;98773.81;5017254;28;20028;-81
2022/11/17 12:18:32;;;;;;;5.65;1.40;;;;;;;8.97;100.00;98789.75;5030322;28;20401;-80
2022/11/17 12:21:22;;;;;;;3.45;1.30;;;;;;;8.94;100.00;98800.28;5031520;28;20022;-81
2022/11/17 12:24:12;;;;;;;6.47;1.33;;;;;;;9.06;100.00;98816.13;5029932;28;20032;-80
2022/11/17 12:26:38;;;;;;;3.25;1.10;;;;;;;9.03;100.00;98813.69;5034397;28;20025;-80
2022/11/17 12:29:30;;;;;;;6.00;1.17;;;;;;;9.03;100.00;98824.06;5036276;28;20030;-80
2022/11/17 12:31:58;;;;;;;5.00;1.67;;;;;;;9.02;100.00;98814.56;5035374;28;20057;-81
2022/11/17 12:34:32;;;;;;;3.92;1.13;;;;;;;9.26;100.00;98827.28;5035863;28;20030;-80
2022/11/17 12:37:05;;;;;;;2.78;1.08;;;;;;;9.29;100.00;98829.75;5035745;28;20021;-81
2022/11/17 12:39:55;;;;;;;4.03;0.90;;;;;;;9.29;100.00;98842.75;5035268;28;20053;-81
2022/11/17 12:42:21;;;;;;;2.33;1.20;;;;;;;9.14;100.00;98816.56;5033532;28;20084;-81
2022/11/17 12:44:46;;;;;;;3.97;1.10;;;;;;;9.19;100.00;98836.28;5034553;28;20469;-81
2022/11/17 12:47:17;;;;;;;4.35;1.40;;;;;;;9.02;100.00;98824.97;5033897;28;20112;-81
2022/11/17 12:49:48;;;;;;;6.28;1.70;;;;;;;9.16;100.00;98834.72;5031311;28;20045;-81
2022/11/17 12:52:23;;;;;;;6.00;1.38;;;;;;;9.20;100.00;98833.63;5027157;28;20034;-81
2022/11/17 12:55:11;;;;;;;4.75;1.40;;;;;;;9.25;100.00;98825.59;5029760;28;20097;-81
2022/11/17 12:57:37;;;;;;;5.22;1.50;;;;;;;9.44;100.00;98838.50;5024563;28;20465;-81
2022/11/17 13:00:44;;;;;;;4.45;1.70;;;;;;;9.50;100.00;98839.03;5034730;28;20112;-81
2022/11/17 13:03:28;;;;;;;2.95;1.13;;;;;;;9.52;100.00;98837.22;4945734;28;20387;-81
2022/11/17 13:06:28;;;;;;;5.65;1.30;;;;;;;9.37;100.00;98814.59;5024482;28;20513;-82
2022/11/17 13:09:14;;;;;;;4.25;1.50;;;;;;;9.47;100.00;98836.59;4935981;29;20046;-81
2022/11/17 13:12:19;;;;;;;2.85;1.08;;;;;;;9.49;100.00;98855.56;4936152;29;20487;-81
2022/11/17 13:15:06;;;;;;;6.93;1.23;;;;;;;9.45;100.00;98822.84;5019049;28;20087;-80
2022/11/17 13:17:37;;;;;;;2.80;1.45;;;;;;;9.65;100.00;98849.59;5031090;28;20076;-80
2022/11/17 13:20:27;;;;;;;4.55;1.10;;;;;;;9.76;100.00;98855.09;5034971;28;20037;-80
2022/11/17 13:23:24;;;;;;;3.50;1.10;;;;;;;9.74;100.00;98829.13;5029052;28;20021;-80
2022/11/17 13:26:06;;;;;;;2.47;0.90;;;;;;;9.89;100.00;98843.13;5034564;28;20032;-80
2022/11/17 13:28:42;;;;;;;4.88;1.20;;;;;;;9.76;100.00;98819.50;5026712;28;20555;-80
2022/11/17 13:31:36;;;;;;;4.15;1.02;;;;;;;10.01;100.00;98868.50;5032627;28;20442;-80
2022/11/17 13:34:20;;;;;;;2.95;0.90;;;;;;;9.97;100.00;98866.13;5031148;28;20033;-80
2022/11/17 13:40:29;;;;;;;4.10;1.10;;;;;;;10.21;100.00;98888.28;5033927;28;20108;-80
2022/11/17 13:42:56;;;;;;;3.20;1.20;;;;;;;10.25;100.00;98857.72;5035926;28;20029;-81
2022/11/17 13:45:21;;;;;;;3.40;1.00;;;;;;;10.44;100.00;98875.81;5054383;28;20029;-81